24h
KLIENDITUGI:
Saartelennuliinid: +372 58856336 (24/7)
Estairi piletikassa lennujaamas:
+372 6058887; +372 55603687

26.09.2018 õhtune Transaviabaltika lend KTB676 Tallinn - Kärdla ja KTB677 Kärdla – Tallinn väljalend jääb ära. Lennu ära jäämise põhjustab madalad pilved Kärdla lennuvälja kohal. Reisijatele võimaldatakse tasuta lennupileti ümberbroneerimine reisija soovi kohasele mõnele teisele Tallinn-Kärdla või Kärdla-Tallinn lennule. Reisijatele kes ei soovi lennupileti ümberbroneerimist teisele lennule tagastatakse piletiraha. Oma soovist tuleb teada anda e-mailile [email protected] Lisainformatsioon telefonil 58856336.

EEKA Kärdla lennuväli
FCEO32 EETN 261200
TAF EEKA 261200Z 2613/2619 23018G35KT 7000 RA BKN010 OVC020 TEMPO
    2613/2618 3000 SHRA BKN006 BKN020CB BECMG 2616/2618 29016G28KT=

METAR EEKA 261250Z 23013G25KT 4400 RA BKN009 OVC015 12/11 Q1001=
Kuupäev: 
26/09/2018